sensor_id;sensor_type;location;lat;lon;timestamp;P1;durP1;ratioP1;P2;durP2;ratioP2
27778;SDS011;30234;48.090;11.464;2023-09-18T00:02:01;5.22;;;3.97;;
27778;SDS011;30234;48.090;11.464;2023-09-18T00:06:02;5.25;;;3.08;;
27778;SDS011;30234;48.090;11.464;2023-09-18T00:10:03;3.10;;;2.80;;
27778;SDS011;30234;48.090;11.464;2023-09-18T00:14:04;4.32;;;2.88;;
27778;SDS011;30234;48.090;11.464;2023-09-18T00:18:05;3.60;;;3.28;;
27778;SDS011;30234;48.090;11.464;2023-09-18T00:22:06;10.48;;;3.67;;
27778;SDS011;30234;48.090;11.464;2023-09-18T00:26:08;3.40;;;3.10;;
27778;SDS011;30234;48.090;11.464;2023-09-18T00:30:08;5.05;;;2.90;;
27778;SDS011;30234;48.090;11.464;2023-09-18T00:34:11;4.18;;;2.67;;
27778;SDS011;30234;48.090;11.464;2023-09-18T00:38:12;6.50;;;3.03;;
27778;SDS011;30234;48.090;11.464;2023-09-18T00:42:13;6.57;;;3.10;;
27778;SDS011;30234;48.090;11.464;2023-09-18T00:46:14;6.72;;;2.92;;
27778;SDS011;30234;48.090;11.464;2023-09-18T00:50:15;4.35;;;2.90;;
27778;SDS011;30234;48.090;11.464;2023-09-18T00:54:16;4.97;;;2.97;;
27778;SDS011;30234;48.090;11.464;2023-09-18T00:58:19;4.47;;;2.70;;
27778;SDS011;30234;48.090;11.464;2023-09-18T01:02:20;8.70;;;2.78;;
27778;SDS011;30234;48.090;11.464;2023-09-18T01:06:20;5.43;;;2.80;;
27778;SDS011;30234;48.090;11.464;2023-09-18T01:10:21;4.15;;;3.50;;
27778;SDS011;30234;48.090;11.464;2023-09-18T01:14:42;3.13;;;2.40;;
27778;SDS011;30234;48.090;11.464;2023-09-18T01:19:03;6.22;;;2.38;;
27778;SDS011;30234;48.090;11.464;2023-09-18T01:23:04;2.78;;;2.35;;
27778;SDS011;30234;48.090;11.464;2023-09-18T01:27:07;3.13;;;2.60;;
27778;SDS011;30234;48.090;11.464;2023-09-18T01:31:11;5.50;;;2.60;;
27778;SDS011;30234;48.090;11.464;2023-09-18T01:35:12;3.55;;;2.45;;
27778;SDS011;30234;48.090;11.464;2023-09-18T01:39:14;4.53;;;2.30;;
27778;SDS011;30234;48.090;11.464;2023-09-18T01:43:16;3.63;;;2.60;;
27778;SDS011;30234;48.090;11.464;2023-09-18T01:47:18;3.92;;;2.63;;
27778;SDS011;30234;48.090;11.464;2023-09-18T01:51:21;5.28;;;3.17;;
27778;SDS011;30234;48.090;11.464;2023-09-18T01:55:22;3.65;;;2.50;;
27778;SDS011;30234;48.090;11.464;2023-09-18T01:59:24;9.88;;;2.83;;
27778;SDS011;30234;48.090;11.464;2023-09-18T02:03:25;6.97;;;2.53;;
27778;SDS011;30234;48.090;11.464;2023-09-18T02:07:25;3.80;;;2.55;;
27778;SDS011;30234;48.090;11.464;2023-09-18T02:11:27;3.00;;;2.50;;
27778;SDS011;30234;48.090;11.464;2023-09-18T02:15:28;4.47;;;3.00;;
27778;SDS011;30234;48.090;11.464;2023-09-18T02:19:31;3.13;;;2.83;;
27778;SDS011;30234;48.090;11.464;2023-09-18T02:23:32;2.78;;;2.33;;
27778;SDS011;30234;48.090;11.464;2023-09-18T02:27:32;3.40;;;2.60;;
27778;SDS011;30234;48.090;11.464;2023-09-18T02:31:33;6.53;;;3.08;;
27778;SDS011;30234;48.090;11.464;2023-09-18T02:35:34;5.35;;;2.55;;
27778;SDS011;30234;48.090;11.464;2023-09-18T02:39:36;4.57;;;2.47;;
27778;SDS011;30234;48.090;11.464;2023-09-18T02:43:37;4.03;;;2.58;;
27778;SDS011;30234;48.090;11.464;2023-09-18T02:47:38;4.00;;;2.60;;
27778;SDS011;30234;48.090;11.464;2023-09-18T02:51:41;4.55;;;2.63;;
27778;SDS011;30234;48.090;11.464;2023-09-18T02:55:42;7.78;;;3.10;;
27778;SDS011;30234;48.090;11.464;2023-09-18T02:59:43;3.83;;;2.72;;
27778;SDS011;30234;48.090;11.464;2023-09-18T03:03:44;4.47;;;2.78;;
27778;SDS011;30234;48.090;11.464;2023-09-18T03:07:45;4.78;;;2.55;;
27778;SDS011;30234;48.090;11.464;2023-09-18T03:11:46;5.13;;;2.88;;
27778;SDS011;30234;48.090;11.464;2023-09-18T03:15:47;7.20;;;3.13;;
27778;SDS011;30234;48.090;11.464;2023-09-18T03:19:48;4.50;;;3.03;;
27778;SDS011;30234;48.090;11.464;2023-09-18T03:23:49;5.15;;;2.63;;
27778;SDS011;30234;48.090;11.464;2023-09-18T03:27:54;5.22;;;2.55;;
27778;SDS011;30234;48.090;11.464;2023-09-18T03:31:56;8.35;;;3.28;;
27778;SDS011;30234;48.090;11.464;2023-09-18T03:35:58;5.43;;;2.42;;
27778;SDS011;30234;48.090;11.464;2023-09-18T03:39:59;7.85;;;2.85;;
27778;SDS011;30234;48.090;11.464;2023-09-18T03:44:01;3.47;;;2.20;;
27778;SDS011;30234;48.090;11.464;2023-09-18T03:48:03;3.78;;;2.83;;
27778;SDS011;30234;48.090;11.464;2023-09-18T03:52:04;4.35;;;2.65;;
27778;SDS011;30234;48.090;11.464;2023-09-18T03:56:05;3.40;;;2.70;;
27778;SDS011;30234;48.090;11.464;2023-09-18T04:00:06;5.40;;;2.47;;
27778;SDS011;30234;48.090;11.464;2023-09-18T04:04:08;2.80;;;2.50;;
27778;SDS011;30234;48.090;11.464;2023-09-18T04:08:09;2.95;;;2.65;;
27778;SDS011;30234;48.090;11.464;2023-09-18T04:12:11;3.35;;;2.40;;
27778;SDS011;30234;48.090;11.464;2023-09-18T04:16:12;5.82;;;3.30;;
27778;SDS011;30234;48.090;11.464;2023-09-18T04:20:17;2.65;;;2.28;;
27778;SDS011;30234;48.090;11.464;2023-09-18T04:24:18;4.13;;;2.70;;
27778;SDS011;30234;48.090;11.464;2023-09-18T04:28:20;11.88;;;4.30;;
27778;SDS011;30234;48.090;11.464;2023-09-18T04:32:23;5.10;;;4.57;;
27778;SDS011;30234;48.090;11.464;2023-09-18T04:36:24;6.95;;;3.05;;
27778;SDS011;30234;48.090;11.464;2023-09-18T04:40:26;10.57;;;2.85;;
27778;SDS011;30234;48.090;11.464;2023-09-18T04:44:32;9.25;;;3.17;;
27778;SDS011;30234;48.090;11.464;2023-09-18T04:48:32;2.90;;;2.50;;
27778;SDS011;30234;48.090;11.464;2023-09-18T04:52:36;5.22;;;2.42;;
27778;SDS011;30234;48.090;11.464;2023-09-18T04:56:37;4.60;;;2.97;;
27778;SDS011;30234;48.090;11.464;2023-09-18T05:00:38;14.27;;;4.40;;
27778;SDS011;30234;48.090;11.464;2023-09-18T05:04:39;7.57;;;3.10;;
27778;SDS011;30234;48.090;11.464;2023-09-18T05:08:43;6.78;;;3.63;;
27778;SDS011;30234;48.090;11.464;2023-09-18T05:12:45;5.60;;;3.10;;
27778;SDS011;30234;48.090;11.464;2023-09-18T05:16:58;4.32;;;2.95;;
27778;SDS011;30234;48.090;11.464;2023-09-18T05:21:00;5.97;;;3.53;;
27778;SDS011;30234;48.090;11.464;2023-09-18T05:25:02;4.35;;;2.63;;
27778;SDS011;30234;48.090;11.464;2023-09-18T05:29:03;10.55;;;2.63;;
27778;SDS011;30234;48.090;11.464;2023-09-18T05:33:04;6.95;;;2.75;;
27778;SDS011;30234;48.090;11.464;2023-09-18T05:37:06;9.00;;;3.15;;
27778;SDS011;30234;48.090;11.464;2023-09-18T05:41:07;11.02;;;2.67;;
27778;SDS011;30234;48.090;11.464;2023-09-18T05:45:18;13.13;;;2.72;;
27778;SDS011;30234;48.090;11.464;2023-09-18T05:49:20;15.50;;;3.67;;
27778;SDS011;30234;48.090;11.464;2023-09-18T05:53:21;15.57;;;3.13;;
27778;SDS011;30234;48.090;11.464;2023-09-18T05:57:36;16.70;;;3.80;;
27778;SDS011;30234;48.090;11.464;2023-09-18T06:01:37;14.30;;;2.92;;
27778;SDS011;30234;48.090;11.464;2023-09-18T06:05:49;10.70;;;2.65;;
27778;SDS011;30234;48.090;11.464;2023-09-18T06:10:54;21.38;;;3.42;;
27778;SDS011;30234;48.090;11.464;2023-09-18T06:33:05;6.68;;;2.65;;
27778;SDS011;30234;48.090;11.464;2023-09-18T06:37:07;8.63;;;3.33;;
27778;SDS011;30234;48.090;11.464;2023-09-18T06:41:11;7.50;;;3.42;;
27778;SDS011;30234;48.090;11.464;2023-09-18T06:45:27;7.85;;;2.88;;
27778;SDS011;30234;48.090;11.464;2023-09-18T06:49:33;6.85;;;2.70;;
27778;SDS011;30234;48.090;11.464;2023-09-18T06:53:35;7.43;;;3.38;;
27778;SDS011;30234;48.090;11.464;2023-09-18T06:57:38;5.43;;;2.65;;
27778;SDS011;30234;48.090;11.464;2023-09-18T07:01:58;4.50;;;2.83;;
27778;SDS011;30234;48.090;11.464;2023-09-18T07:06:01;3.50;;;2.60;;
27778;SDS011;30234;48.090;11.464;2023-09-18T07:10:08;10.30;;;3.08;;
27778;SDS011;30234;48.090;11.464;2023-09-18T07:14:10;11.20;;;2.60;;
27778;SDS011;30234;48.090;11.464;2023-09-18T07:18:11;9.10;;;3.28;;
27778;SDS011;30234;48.090;11.464;2023-09-18T07:22:14;7.80;;;2.53;;
27778;SDS011;30234;48.090;11.464;2023-09-18T07:26:20;10.15;;;2.47;;
27778;SDS011;30234;48.090;11.464;2023-09-18T07:30:22;13.55;;;3.58;;
27778;SDS011;30234;48.090;11.464;2023-09-18T07:34:43;10.65;;;2.70;;
27778;SDS011;30234;48.090;11.464;2023-09-18T07:38:47;8.52;;;3.00;;
27778;SDS011;30234;48.090;11.464;2023-09-18T07:42:54;10.77;;;2.90;;
27778;SDS011;30234;48.090;11.464;2023-09-18T07:46:58;11.25;;;2.90;;
27778;SDS011;30234;48.090;11.464;2023-09-18T07:51:01;6.60;;;2.40;;
27778;SDS011;30234;48.090;11.464;2023-09-18T07:55:06;8.07;;;2.33;;
27778;SDS011;30234;48.090;11.464;2023-09-18T07:59:13;6.60;;;2.10;;
27778;SDS011;30234;48.090;11.464;2023-09-18T08:03:17;6.45;;;2.05;;
27778;SDS011;30234;48.090;11.464;2023-09-18T08:07:19;3.60;;;2.47;;
27778;SDS011;30234;48.090;11.464;2023-09-18T08:11:20;4.75;;;2.22;;
27778;SDS011;30234;48.090;11.464;2023-09-18T08:15:29;5.68;;;2.22;;
27778;SDS011;30234;48.090;11.464;2023-09-18T08:19:33;6.40;;;2.50;;
27778;SDS011;30234;48.090;11.464;2023-09-18T08:23:36;3.83;;;2.33;;
27778;SDS011;30234;48.090;11.464;2023-09-18T08:27:38;5.20;;;2.53;;
27778;SDS011;30234;48.090;11.464;2023-09-18T08:31:42;9.27;;;2.78;;
27778;SDS011;30234;48.090;11.464;2023-09-18T08:35:46;9.82;;;2.58;;
27778;SDS011;30234;48.090;11.464;2023-09-18T08:39:49;6.63;;;2.67;;
27778;SDS011;30234;48.090;11.464;2023-09-18T08:43:51;3.05;;;2.25;;
27778;SDS011;30234;48.090;11.464;2023-09-18T08:47:57;6.75;;;2.70;;
27778;SDS011;30234;48.090;11.464;2023-09-18T08:51:59;8.05;;;2.80;;
27778;SDS011;30234;48.090;11.464;2023-09-18T08:56:01;9.65;;;2.67;;
27778;SDS011;30234;48.090;11.464;2023-09-18T09:00:08;8.85;;;3.30;;
27778;SDS011;30234;48.090;11.464;2023-09-18T09:04:12;8.75;;;2.72;;
27778;SDS011;30234;48.090;11.464;2023-09-18T09:08:13;4.45;;;2.95;;
27778;SDS011;30234;48.090;11.464;2023-09-18T09:17:19;14.48;;;3.38;;
27778;SDS011;30234;48.090;11.464;2023-09-18T09:21:21;7.68;;;2.58;;
27778;SDS011;30234;48.090;11.464;2023-09-18T09:25:28;6.28;;;2.55;;
27778;SDS011;30234;48.090;11.464;2023-09-18T09:30:02;10.32;;;2.65;;
27778;SDS011;30234;48.090;11.464;2023-09-18T10:38:52;17.33;;;3.38;;
27778;SDS011;30234;48.090;11.464;2023-09-18T10:43:42;15.52;;;3.85;;
27778;SDS011;30234;48.090;11.464;2023-09-18T11:06:16;13.50;;;3.42;;
27778;SDS011;30234;48.090;11.464;2023-09-18T11:10:27;12.10;;;3.78;;
27778;SDS011;30234;48.090;11.464;2023-09-18T11:23:19;8.68;;;2.75;;
27778;SDS011;30234;48.090;11.464;2023-09-18T11:28:35;7.53;;;2.58;;
27778;SDS011;30234;48.090;11.464;2023-09-18T11:32:43;16.40;;;2.97;;
27778;SDS011;30234;48.090;11.464;2023-09-18T11:36:50;8.65;;;2.60;;
27778;SDS011;30234;48.090;11.464;2023-09-18T11:51:43;6.80;;;2.25;;
27778;SDS011;30234;48.090;11.464;2023-09-18T11:55:46;8.77;;;2.22;;
27778;SDS011;30234;48.090;11.464;2023-09-18T11:59:48;3.95;;;2.17;;
27778;SDS011;30234;48.090;11.464;2023-09-18T12:03:54;2.40;;;1.30;;
27778;SDS011;30234;48.090;11.464;2023-09-18T12:08:00;3.95;;;1.75;;
27778;SDS011;30234;48.090;11.464;2023-09-18T12:12:01;6.10;;;2.20;;
27778;SDS011;30234;48.090;11.464;2023-09-18T12:16:06;7.97;;;2.10;;
27778;SDS011;30234;48.090;11.464;2023-09-18T12:20:18;3.33;;;1.63;;
27778;SDS011;30234;48.090;11.464;2023-09-18T12:28:25;1.73;;;1.10;;
27778;SDS011;30234;48.090;11.464;2023-09-18T12:32:29;5.25;;;1.58;;
27778;SDS011;30234;48.090;11.464;2023-09-18T12:36:29;3.42;;;1.50;;
27778;SDS011;30234;48.090;11.464;2023-09-18T12:40:31;2.92;;;1.35;;
27778;SDS011;30234;48.090;11.464;2023-09-18T12:44:35;4.40;;;1.30;;
27778;SDS011;30234;48.090;11.464;2023-09-18T12:48:36;5.03;;;1.38;;
27778;SDS011;30234;48.090;11.464;2023-09-18T12:52:42;2.05;;;0.80;;
27778;SDS011;30234;48.090;11.464;2023-09-18T12:56:43;1.67;;;0.95;;
27778;SDS011;30234;48.090;11.464;2023-09-18T13:00:44;6.13;;;1.15;;
27778;SDS011;30234;48.090;11.464;2023-09-18T13:04:54;2.20;;;0.80;;
27778;SDS011;30234;48.090;11.464;2023-09-18T13:09:08;3.90;;;1.30;;
27778;SDS011;30234;48.090;11.464;2023-09-18T13:13:20;8.55;;;1.30;;
27778;SDS011;30234;48.090;11.464;2023-09-18T13:17:22;6.22;;;1.23;;
27778;SDS011;30234;48.090;11.464;2023-09-18T13:21:24;5.13;;;1.55;;
27778;SDS011;30234;48.090;11.464;2023-09-18T13:25:25;4.70;;;1.20;;
27778;SDS011;30234;48.090;11.464;2023-09-18T13:29:30;2.38;;;0.95;;
27778;SDS011;30234;48.090;11.464;2023-09-18T13:33:31;1.70;;;1.00;;
27778;SDS011;30234;48.090;11.464;2023-09-18T13:37:34;2.55;;;1.17;;
27778;SDS011;30234;48.090;11.464;2023-09-18T13:41:35;2.97;;;0.93;;
27778;SDS011;30234;48.090;11.464;2023-09-18T13:45:37;1.83;;;0.70;;
27778;SDS011;30234;48.090;11.464;2023-09-18T13:49:38;5.30;;;0.95;;
27778;SDS011;30234;48.090;11.464;2023-09-18T13:53:39;2.03;;;0.88;;
27778;SDS011;30234;48.090;11.464;2023-09-18T13:57:41;5.35;;;0.95;;
27778;SDS011;30234;48.090;11.464;2023-09-18T14:01:42;1.73;;;0.77;;
27778;SDS011;30234;48.090;11.464;2023-09-18T14:05:43;2.17;;;0.60;;
27778;SDS011;30234;48.090;11.464;2023-09-18T14:09:43;2.20;;;0.68;;
27778;SDS011;30234;48.090;11.464;2023-09-18T14:13:46;0.85;;;0.60;;
27778;SDS011;30234;48.090;11.464;2023-09-18T14:17:47;2.08;;;0.50;;
27778;SDS011;30234;48.090;11.464;2023-09-18T14:21:49;2.08;;;0.80;;
27778;SDS011;30234;48.090;11.464;2023-09-18T14:25:50;1.98;;;0.70;;
27778;SDS011;30234;48.090;11.464;2023-09-18T14:29:51;1.08;;;0.70;;
27778;SDS011;30234;48.090;11.464;2023-09-18T14:33:52;2.70;;;0.73;;
27778;SDS011;30234;48.090;11.464;2023-09-18T14:37:53;2.20;;;0.95;;
27778;SDS011;30234;48.090;11.464;2023-09-18T14:41:54;2.88;;;1.30;;
27778;SDS011;30234;48.090;11.464;2023-09-18T14:45:55;3.28;;;0.70;;
27778;SDS011;30234;48.090;11.464;2023-09-18T14:49:57;2.10;;;0.82;;
27778;SDS011;30234;48.090;11.464;2023-09-18T14:53:58;1.85;;;0.90;;
27778;SDS011;30234;48.090;11.464;2023-09-18T14:58:00;2.70;;;0.80;;
27778;SDS011;30234;48.090;11.464;2023-09-18T15:02:01;3.60;;;0.80;;
27778;SDS011;30234;48.090;11.464;2023-09-18T15:06:03;4.18;;;1.55;;
27778;SDS011;30234;48.090;11.464;2023-09-18T15:10:04;1.08;;;1.02;;
27778;SDS011;30234;48.090;11.464;2023-09-18T15:14:05;1.50;;;0.75;;
27778;SDS011;30234;48.090;11.464;2023-09-18T15:18:09;2.40;;;0.77;;
27778;SDS011;30234;48.090;11.464;2023-09-18T15:22:10;1.88;;;0.55;;
27778;SDS011;30234;48.090;11.464;2023-09-18T15:26:11;1.27;;;0.70;;
27778;SDS011;30234;48.090;11.464;2023-09-18T15:30:12;1.17;;;0.70;;
27778;SDS011;30234;48.090;11.464;2023-09-18T15:34:13;1.75;;;0.50;;
27778;SDS011;30234;48.090;11.464;2023-09-18T15:38:14;0.85;;;0.70;;
27778;SDS011;30234;48.090;11.464;2023-09-18T15:42:15;2.45;;;1.02;;
27778;SDS011;30234;48.090;11.464;2023-09-18T15:46:16;2.45;;;0.60;;
27778;SDS011;30234;48.090;11.464;2023-09-18T15:50:19;1.33;;;0.63;;
27778;SDS011;30234;48.090;11.464;2023-09-18T15:54:21;1.60;;;0.90;;
27778;SDS011;30234;48.090;11.464;2023-09-18T15:58:22;1.85;;;0.80;;
27778;SDS011;30234;48.090;11.464;2023-09-18T16:02:24;1.00;;;0.93;;
27778;SDS011;30234;48.090;11.464;2023-09-18T16:06:25;1.40;;;0.70;;
27778;SDS011;30234;48.090;11.464;2023-09-18T16:10:26;2.05;;;0.60;;
27778;SDS011;30234;48.090;11.464;2023-09-18T16:14:27;0.65;;;0.60;;
27778;SDS011;30234;48.090;11.464;2023-09-18T16:18:28;0.85;;;0.57;;
27778;SDS011;30234;48.090;11.464;2023-09-18T16:22:29;2.97;;;0.80;;
27778;SDS011;30234;48.090;11.464;2023-09-18T16:26:30;2.65;;;0.55;;
27778;SDS011;30234;48.090;11.464;2023-09-18T16:30:31;1.70;;;0.50;;
27778;SDS011;30234;48.090;11.464;2023-09-18T16:34:32;0.60;;;0.40;;
27778;SDS011;30234;48.090;11.464;2023-09-18T16:38:33;2.78;;;0.70;;
27778;SDS011;30234;48.090;11.464;2023-09-18T16:42:41;2.40;;;0.60;;
27778;SDS011;30234;48.090;11.464;2023-09-18T16:46:44;1.70;;;0.73;;
27778;SDS011;30234;48.090;11.464;2023-09-18T16:50:45;2.03;;;0.55;;
27778;SDS011;30234;48.090;11.464;2023-09-18T16:54:46;1.42;;;0.70;;
27778;SDS011;30234;48.090;11.464;2023-09-18T16:58:47;1.27;;;0.40;;
27778;SDS011;30234;48.090;11.464;2023-09-18T17:02:48;1.10;;;0.63;;
27778;SDS011;30234;48.090;11.464;2023-09-18T17:06:51;1.50;;;0.57;;
27778;SDS011;30234;48.090;11.464;2023-09-18T17:10:51;0.88;;;0.50;;
27778;SDS011;30234;48.090;11.464;2023-09-18T17:14:52;0.60;;;0.60;;
27778;SDS011;30234;48.090;11.464;2023-09-18T17:18:53;2.28;;;0.70;;
27778;SDS011;30234;48.090;11.464;2023-09-18T17:22:57;0.70;;;0.40;;
27778;SDS011;30234;48.090;11.464;2023-09-18T17:26:57;0.43;;;0.43;;
27778;SDS011;30234;48.090;11.464;2023-09-18T17:30:59;1.85;;;0.50;;
27778;SDS011;30234;48.090;11.464;2023-09-18T17:35:01;0.65;;;0.50;;
27778;SDS011;30234;48.090;11.464;2023-09-18T17:39:02;1.77;;;0.80;;
27778;SDS011;30234;48.090;11.464;2023-09-18T17:43:03;1.52;;;0.75;;
27778;SDS011;30234;48.090;11.464;2023-09-18T17:47:06;2.08;;;0.75;;
27778;SDS011;30234;48.090;11.464;2023-09-18T17:51:07;1.30;;;0.68;;
27778;SDS011;30234;48.090;11.464;2023-09-18T17:55:08;2.20;;;0.65;;
27778;SDS011;30234;48.090;11.464;2023-09-18T17:59:10;2.50;;;0.63;;
27778;SDS011;30234;48.090;11.464;2023-09-18T18:03:12;1.70;;;0.77;;
27778;SDS011;30234;48.090;11.464;2023-09-18T18:07:13;1.88;;;0.73;;
27778;SDS011;30234;48.090;11.464;2023-09-18T18:11:14;0.68;;;0.65;;
27778;SDS011;30234;48.090;11.464;2023-09-18T18:15:16;1.52;;;0.60;;
27778;SDS011;30234;48.090;11.464;2023-09-18T18:19:17;2.13;;;0.50;;
27778;SDS011;30234;48.090;11.464;2023-09-18T18:23:18;1.20;;;0.60;;
27778;SDS011;30234;48.090;11.464;2023-09-18T18:27:19;1.98;;;0.63;;
27778;SDS011;30234;48.090;11.464;2023-09-18T18:31:20;1.63;;;0.80;;
27778;SDS011;30234;48.090;11.464;2023-09-18T18:35:21;3.17;;;1.00;;
27778;SDS011;30234;48.090;11.464;2023-09-18T18:39:23;1.02;;;0.63;;
27778;SDS011;30234;48.090;11.464;2023-09-18T18:43:24;1.40;;;0.50;;
27778;SDS011;30234;48.090;11.464;2023-09-18T18:47:25;1.65;;;0.75;;
27778;SDS011;30234;48.090;11.464;2023-09-18T18:51:26;3.30;;;0.57;;
27778;SDS011;30234;48.090;11.464;2023-09-18T18:55:27;1.75;;;0.57;;
27778;SDS011;30234;48.090;11.464;2023-09-18T18:59:29;1.02;;;0.57;;
27778;SDS011;30234;48.090;11.464;2023-09-18T19:03:30;1.52;;;0.52;;
27778;SDS011;30234;48.090;11.464;2023-09-18T19:07:34;0.63;;;0.45;;
27778;SDS011;30234;48.090;11.464;2023-09-18T19:11:37;1.33;;;0.63;;
27778;SDS011;30234;48.090;11.464;2023-09-18T19:15:38;0.63;;;0.40;;
27778;SDS011;30234;48.090;11.464;2023-09-18T19:19:39;1.90;;;0.60;;
27778;SDS011;30234;48.090;11.464;2023-09-18T19:23:40;1.55;;;0.90;;
27778;SDS011;30234;48.090;11.464;2023-09-18T19:27:45;1.65;;;0.70;;
27778;SDS011;30234;48.090;11.464;2023-09-18T19:31:47;1.02;;;0.73;;
27778;SDS011;30234;48.090;11.464;2023-09-18T19:35:49;1.50;;;0.80;;
27778;SDS011;30234;48.090;11.464;2023-09-18T19:39:50;1.80;;;0.80;;
27778;SDS011;30234;48.090;11.464;2023-09-18T19:43:51;3.00;;;1.17;;
27778;SDS011;30234;48.090;11.464;2023-09-18T19:47:52;0.88;;;0.80;;
27778;SDS011;30234;48.090;11.464;2023-09-18T19:51:53;1.48;;;0.70;;
27778;SDS011;30234;48.090;11.464;2023-09-18T19:55:54;1.40;;;0.55;;
27778;SDS011;30234;48.090;11.464;2023-09-18T19:59:55;2.00;;;0.93;;
27778;SDS011;30234;48.090;11.464;2023-09-18T20:03:56;2.63;;;1.00;;
27778;SDS011;30234;48.090;11.464;2023-09-18T20:07:57;1.48;;;0.60;;
27778;SDS011;30234;48.090;11.464;2023-09-18T20:11:58;2.42;;;0.65;;
27778;SDS011;30234;48.090;11.464;2023-09-18T20:15:59;0.82;;;0.70;;
27778;SDS011;30234;48.090;11.464;2023-09-18T20:20:00;4.10;;;1.08;;
27778;SDS011;30234;48.090;11.464;2023-09-18T20:24:01;1.67;;;0.80;;
27778;SDS011;30234;48.090;11.464;2023-09-18T20:28:02;3.03;;;1.02;;
27778;SDS011;30234;48.090;11.464;2023-09-18T20:32:03;0.88;;;0.70;;
27778;SDS011;30234;48.090;11.464;2023-09-18T20:36:04;1.50;;;1.00;;
27778;SDS011;30234;48.090;11.464;2023-09-18T20:40:06;2.45;;;0.90;;
27778;SDS011;30234;48.090;11.464;2023-09-18T20:44:07;1.20;;;0.80;;
27778;SDS011;30234;48.090;11.464;2023-09-18T20:48:08;2.40;;;0.80;;
27778;SDS011;30234;48.090;11.464;2023-09-18T20:52:09;1.13;;;0.88;;
27778;SDS011;30234;48.090;11.464;2023-09-18T20:56:10;1.95;;;0.93;;
27778;SDS011;30234;48.090;11.464;2023-09-18T21:00:11;1.88;;;1.08;;
27778;SDS011;30234;48.090;11.464;2023-09-18T21:04:12;2.95;;;1.05;;
27778;SDS011;30234;48.090;11.464;2023-09-18T21:08:13;0.95;;;0.80;;
27778;SDS011;30234;48.090;11.464;2023-09-18T21:12:15;1.90;;;1.05;;
27778;SDS011;30234;48.090;11.464;2023-09-18T21:16:19;0.98;;;0.73;;
27778;SDS011;30234;48.090;11.464;2023-09-18T21:20:20;1.13;;;0.70;;
27778;SDS011;30234;48.090;11.464;2023-09-18T21:24:21;2.50;;;0.82;;
27778;SDS011;30234;48.090;11.464;2023-09-18T21:28:22;1.17;;;1.05;;
27778;SDS011;30234;48.090;11.464;2023-09-18T21:32:23;2.50;;;1.05;;
27778;SDS011;30234;48.090;11.464;2023-09-18T21:36:25;5.18;;;1.00;;
27778;SDS011;30234;48.090;11.464;2023-09-18T21:40:26;1.60;;;0.80;;
27778;SDS011;30234;48.090;11.464;2023-09-18T21:44:27;0.70;;;0.70;;
27778;SDS011;30234;48.090;11.464;2023-09-18T21:48:28;3.45;;;0.90;;
27778;SDS011;30234;48.090;11.464;2023-09-18T21:52:29;2.92;;;0.80;;
27778;SDS011;30234;48.090;11.464;2023-09-18T21:56:30;3.53;;;1.23;;
27778;SDS011;30234;48.090;11.464;2023-09-18T22:00:31;3.65;;;0.70;;
27778;SDS011;30234;48.090;11.464;2023-09-18T22:04:34;1.80;;;0.77;;
27778;SDS011;30234;48.090;11.464;2023-09-18T22:08:35;0.93;;;0.70;;
27778;SDS011;30234;48.090;11.464;2023-09-18T22:12:36;0.98;;;0.77;;
27778;SDS011;30234;48.090;11.464;2023-09-18T22:16:38;2.67;;;0.90;;
27778;SDS011;30234;48.090;11.464;2023-09-18T22:20:39;1.00;;;0.80;;
27778;SDS011;30234;48.090;11.464;2023-09-18T22:24:40;1.42;;;0.90;;
27778;SDS011;30234;48.090;11.464;2023-09-18T22:28:41;4.13;;;0.90;;
27778;SDS011;30234;48.090;11.464;2023-09-18T22:32:43;1.38;;;0.70;;
27778;SDS011;30234;48.090;11.464;2023-09-18T22:36:44;5.57;;;1.27;;
27778;SDS011;30234;48.090;11.464;2023-09-18T22:54:45;2.50;;;0.90;;
27778;SDS011;30234;48.090;11.464;2023-09-18T22:58:50;4.50;;;0.93;;
27778;SDS011;30234;48.090;11.464;2023-09-18T23:02:52;0.80;;;0.65;;
27778;SDS011;30234;48.090;11.464;2023-09-18T23:06:53;2.53;;;0.70;;
27778;SDS011;30234;48.090;11.464;2023-09-18T23:10:55;2.20;;;0.90;;
27778;SDS011;30234;48.090;11.464;2023-09-18T23:15:08;1.38;;;0.57;;
27778;SDS011;30234;48.090;11.464;2023-09-18T23:19:13;3.22;;;0.70;;
27778;SDS011;30234;48.090;11.464;2023-09-18T23:23:14;3.17;;;0.60;;
27778;SDS011;30234;48.090;11.464;2023-09-18T23:27:15;7.00;;;1.15;;
27778;SDS011;30234;48.090;11.464;2023-09-18T23:31:16;1.83;;;0.70;;
27778;SDS011;30234;48.090;11.464;2023-09-18T23:35:17;1.63;;;0.55;;
27778;SDS011;30234;48.090;11.464;2023-09-18T23:39:21;2.28;;;0.70;;
27778;SDS011;30234;48.090;11.464;2023-09-18T23:43:25;0.70;;;0.70;;
27778;SDS011;30234;48.090;11.464;2023-09-18T23:47:26;3.75;;;1.75;;
27778;SDS011;30234;48.090;11.464;2023-09-18T23:51:27;6.95;;;1.52;;
27778;SDS011;30234;48.090;11.464;2023-09-18T23:55:29;0.63;;;0.63;;
27778;SDS011;30234;48.090;11.464;2023-09-18T23:59:32;1.13;;;0.90;;
